Time;durP1;ratioP1;P1;durP2;ratioP2;P2;SDS_P1;SDS_P2;PMS_P1;PMS_P2;Temp;Humidity;BMP_temperature;BMP_pressure;BME280_temperature;BME280_humidity;BME280_pressure;Samples;Min_cycle;Max_cycle;Signal;HPM_P1;HPM_P2
2022/04/04 00:01:02;;;;;;;7.35;3.15;;;2.80;99.90;;;;;;5097486;27;20036;-63
2022/04/04 00:03:28;;;;;;;5.43;3.25;;;2.80;99.90;;;;;;5092234;27;20077;-65
2022/04/04 00:05:54;;;;;;;5.97;3.13;;;2.80;99.90;;;;;;5119035;27;20733;-64
2022/04/04 00:08:19;;;;;;;5.22;3.63;;;2.70;99.90;;;;;;5088321;28;20130;-70
2022/04/04 00:10:45;;;;;;;8.95;3.53;;;2.70;99.90;;;;;;5085923;28;20126;-66
2022/04/04 00:13:11;;;;;;;5.63;3.30;;;2.70;99.90;;;;;;5079275;27;20027;-63
2022/04/04 00:15:36;;;;;;;6.20;3.40;;;2.80;99.90;;;;;;5094526;28;20043;-64
2022/04/04 00:18:10;;;;;;;7.32;3.40;;;2.80;99.90;;;;;;5083491;27;20087;-64
2022/04/04 00:20:36;;;;;;;6.70;3.42;;;2.80;99.90;;;;;;5123485;27;20355;-65
2022/04/04 00:23:02;;;;;;;5.28;3.30;;;2.80;99.90;;;;;;5086752;27;20042;-64
2022/04/04 00:25:28;;;;;;;6.50;3.15;;;2.80;99.90;;;;;;5109146;27;20031;-66
2022/04/04 00:27:54;;;;;;;6.72;3.88;;;2.90;99.90;;;;;;5091841;27;20167;-64
2022/04/04 00:30:19;;;;;;;5.30;3.28;;;2.80;99.90;;;;;;5122150;27;20146;-64
2022/04/04 00:32:46;;;;;;;7.30;3.70;;;2.90;99.90;;;;;;5120897;27;20035;-64
2022/04/04 00:35:12;;;;;;;10.80;3.60;;;2.90;99.90;;;;;;5090606;27;20038;-65
2022/04/04 00:37:37;;;;;;;6.22;3.38;;;2.90;99.90;;;;;;5086536;28;20112;-64
2022/04/04 00:40:05;;;;;;;5.47;3.08;;;2.90;99.90;;;;;;5088948;27;20074;-63
2022/04/04 00:42:31;;;;;;;6.88;3.50;;;2.90;99.90;;;;;;5079685;28;20493;-65
2022/04/04 00:44:57;;;;;;;7.68;3.80;;;2.90;99.90;;;;;;5102349;28;20092;-63
2022/04/04 00:47:23;;;;;;;8.93;3.88;;;2.90;99.90;;;;;;5104014;27;20113;-64
2022/04/04 00:49:49;;;;;;;7.32;3.83;;;2.90;99.90;;;;;;5089519;27;20653;-65
2022/04/04 00:52:14;;;;;;;5.47;3.55;;;2.90;99.90;;;;;;5093218;28;20038;-64
2022/04/04 00:54:40;;;;;;;7.85;3.88;;;2.90;99.90;;;;;;5087201;28;20121;-65
2022/04/04 00:57:06;;;;;;;9.23;3.30;;;2.90;99.90;;;;;;5111041;27;20097;-64
2022/04/04 00:59:32;;;;;;;7.57;3.88;;;2.90;99.90;;;;;;5087161;28;20575;-64
2022/04/04 01:01:57;;;;;;;7.93;3.70;;;2.90;99.90;;;;;;5087210;28;20081;-66
2022/04/04 01:04:23;;;;;;;7.85;4.20;;;3.00;99.90;;;;;;5117627;27;20372;-64
2022/04/04 01:06:48;;;;;;;8.00;4.13;;;3.00;99.90;;;;;;5119431;27;20051;-65
2022/04/04 01:09:14;;;;;;;9.32;4.28;;;3.00;99.90;;;;;;5116647;28;20036;-65
2022/04/04 01:12:03;;;;;;;8.43;4.18;;;3.00;99.90;;;;;;5087219;28;20043;-62
2022/04/04 01:14:29;;;;;;;8.52;4.45;;;3.00;99.90;;;;;;5092733;28;20039;-64
2022/04/04 01:16:55;;;;;;;6.88;4.15;;;3.00;99.90;;;;;;5106598;28;20100;-63
2022/04/04 01:19:21;;;;;;;7.75;4.13;;;3.10;99.90;;;;;;5105826;28;20155;-62
2022/04/04 01:21:47;;;;;;;10.68;4.40;;;3.10;99.90;;;;;;5087928;28;20136;-63
2022/04/04 01:24:18;;;;;;;7.72;4.47;;;3.10;99.90;;;;;;5112159;28;20047;-63
2022/04/04 01:26:50;;;;;;;8.07;4.63;;;3.10;99.90;;;;;;5085667;28;20444;-66
2022/04/04 01:29:16;;;;;;;10.27;5.47;;;3.20;99.90;;;;;;5121656;28;20071;-65
2022/04/04 01:31:42;;;;;;;8.27;4.60;;;3.20;99.90;;;;;;5093982;28;20047;-63
2022/04/04 01:34:08;;;;;;;9.68;5.38;;;3.20;99.90;;;;;;5086430;28;20044;-64
2022/04/04 01:36:33;;;;;;;9.68;5.32;;;3.20;99.90;;;;;;5086293;28;20100;-64
2022/04/04 01:38:59;;;;;;;9.88;5.28;;;3.20;99.90;;;;;;5086400;28;20043;-64
2022/04/04 01:41:25;;;;;;;9.65;5.03;;;3.20;99.90;;;;;;5084497;28;20042;-63
2022/04/04 01:43:51;;;;;;;9.30;5.18;;;3.20;99.90;;;;;;5087446;28;20076;-64
2022/04/04 01:46:27;;;;;;;10.43;5.55;;;3.30;99.90;;;;;;5090036;28;20096;-65
2022/04/04 01:48:58;;;;;;;12.02;6.57;;;3.30;99.90;;;;;;5087143;28;20437;-63
2022/04/04 01:51:25;;;;;;;9.88;5.90;;;3.30;99.90;;;;;;5088534;28;20100;-64
2022/04/04 01:53:50;;;;;;;12.70;7.07;;;3.40;99.90;;;;;;5085260;28;20099;-64
2022/04/04 01:56:17;;;;;;;12.88;6.65;;;3.30;99.90;;;;;;5071736;28;20039;-64
2022/04/04 01:58:43;;;;;;;14.55;7.25;;;3.30;99.90;;;;;;5107737;28;20035;-64
2022/04/04 02:01:19;;;;;;;12.63;7.03;;;3.40;99.90;;;;;;5086572;28;20043;-63
2022/04/04 02:03:48;;;;;;;13.27;7.25;;;3.40;99.90;;;;;;5104725;28;20101;-65
2022/04/04 02:06:14;;;;;;;17.45;7.88;;;3.40;99.90;;;;;;5100747;28;20135;-64
2022/04/04 02:08:44;;;;;;;12.25;8.02;;;3.40;99.90;;;;;;5084045;28;20058;-66
2022/04/04 02:11:10;;;;;;;15.85;7.90;;;3.40;99.90;;;;;;5094435;28;20046;-63
2022/04/04 02:13:36;;;;;;;16.70;8.88;;;3.40;99.90;;;;;;5113401;28;20457;-65
2022/04/04 02:16:02;;;;;;;15.93;8.20;;;3.40;99.90;;;;;;5085137;28;20419;-64
2022/04/04 02:18:29;;;;;;;18.20;8.45;;;3.50;99.90;;;;;;5105279;28;20036;-64
2022/04/04 02:20:54;;;;;;;16.10;8.20;;;3.50;99.90;;;;;;5086258;28;20417;-64
2022/04/04 02:23:20;;;;;;;17.17;9.63;;;3.50;99.90;;;;;;5090698;28;20131;-65
2022/04/04 02:25:50;;;;;;;16.45;9.07;;;3.50;99.90;;;;;;5077174;27;20038;-63
2022/04/04 02:28:17;;;;;;;14.98;9.10;;;3.50;99.90;;;;;;5091288;27;20158;-64
2022/04/04 02:30:46;;;;;;;16.08;9.23;;;3.60;99.90;;;;;;5090993;28;20039;-64
2022/04/04 02:33:13;;;;;;;18.02;9.73;;;3.60;99.90;;;;;;5091875;28;20040;-64
2022/04/04 02:35:39;;;;;;;16.00;8.85;;;3.60;99.90;;;;;;5090905;28;20028;-64
2022/04/04 02:38:05;;;;;;;16.42;9.48;;;3.60;99.90;;;;;;5088920;28;20483;-63
2022/04/04 02:40:31;;;;;;;16.08;9.32;;;3.70;99.90;;;;;;5089643;28;20049;-64
2022/04/04 02:42:57;;;;;;;14.73;8.90;;;3.70;99.90;;;;;;5119096;27;20088;-64
2022/04/04 02:45:23;;;;;;;15.77;9.48;;;3.80;99.90;;;;;;5121834;27;20054;-64
2022/04/04 02:47:48;;;;;;;18.05;9.45;;;3.80;99.90;;;;;;5089491;28;20028;-64
2022/04/04 02:50:17;;;;;;;21.73;10.10;;;3.90;99.90;;;;;;5090466;28;20374;-65
2022/04/04 02:52:43;;;;;;;21.08;9.95;;;3.90;99.90;;;;;;5122309;27;20043;-64
2022/04/04 02:57:55;;;;;;;16.25;9.30;;;4.00;99.90;;;;;;5088158;27;20063;-65
2022/04/04 03:00:23;;;;;;;15.80;9.05;;;4.10;99.90;;;;;;5090739;27;20092;-63
2022/04/04 03:02:49;;;;;;;19.85;9.20;;;4.30;99.90;;;;;;5088633;27;20189;-65
2022/04/04 03:05:15;;;;;;;17.77;9.00;;;4.30;99.90;;;;;;5095310;28;20447;-64
2022/04/04 03:07:41;;;;;;;17.63;10.05;;;4.30;99.90;;;;;;5089455;28;20081;-64
2022/04/04 03:10:07;;;;;;;16.90;8.93;;;4.40;99.80;;;;;;5086895;28;20040;-67
2022/04/04 03:12:33;;;;;;;16.67;9.65;;;4.40;99.60;;;;;;5109920;27;20050;-64
2022/04/04 03:14:58;;;;;;;18.52;10.18;;;4.40;99.50;;;;;;5090971;28;20384;-63
2022/04/04 03:17:25;;;;;;;16.85;9.20;;;4.50;99.40;;;;;;5089070;28;20471;-66
2022/04/04 03:19:51;;;;;;;17.88;8.93;;;4.50;99.00;;;;;;5099321;28;20078;-67
2022/04/04 03:22:17;;;;;;;18.27;9.48;;;4.50;99.20;;;;;;5099960;27;20162;-66
2022/04/04 03:24:43;;;;;;;18.45;9.52;;;4.60;98.90;;;;;;5098340;27;20130;-65
2022/04/04 03:27:13;;;;;;;21.50;9.48;;;4.60;98.90;;;;;;5091337;28;20317;-65
2022/04/04 03:29:39;;;;;;;19.83;9.23;;;4.60;98.80;;;;;;5106000;27;20689;-65
2022/04/04 03:32:06;;;;;;;19.08;10.23;;;4.60;98.70;;;;;;5069554;27;20032;-68
2022/04/04 03:34:31;;;;;;;17.85;10.65;;;4.60;98.50;;;;;;5088518;28;20043;-66
2022/04/04 03:36:57;;;;;;;16.50;8.82;;;4.70;98.40;;;;;;5096024;27;20023;-65
2022/04/04 03:39:23;;;;;;;18.63;9.55;;;4.70;98.30;;;;;;5078329;28;20730;-64
2022/04/04 03:41:49;;;;;;;22.35;11.38;;;4.80;98.20;;;;;;5089211;28;20375;-66
2022/04/04 03:44:15;;;;;;;18.48;10.25;;;4.80;98.00;;;;;;5083486;28;21030;-64
2022/04/04 03:46:41;;;;;;;19.02;10.85;;;4.80;98.00;;;;;;5088717;28;20127;-67
2022/04/04 03:49:07;;;;;;;18.48;9.88;;;4.80;97.80;;;;;;5088141;28;20044;-63
2022/04/04 03:51:33;;;;;;;19.27;10.45;;;4.90;97.50;;;;;;5107914;27;20063;-66
2022/04/04 03:53:58;;;;;;;21.10;10.35;;;4.90;97.40;;;;;;5108046;27;20071;-65
2022/04/04 03:56:24;;;;;;;20.92;10.23;;;4.90;97.20;;;;;;5088332;28;20033;-63
2022/04/04 03:58:52;;;;;;;20.67;9.98;;;5.00;97.10;;;;;;5084439;28;20062;-67
2022/04/04 04:01:18;;;;;;;20.88;10.18;;;5.00;96.60;;;;;;5091681;28;20312;-63
2022/04/04 04:03:44;;;;;;;19.10;11.07;;;5.00;96.70;;;;;;5087207;28;20108;-64
2022/04/04 04:06:12;;;;;;;16.95;9.75;;;5.00;96.60;;;;;;5108764;27;20035;-65
2022/04/04 04:08:42;;;;;;;17.52;9.95;;;5.00;96.60;;;;;;5074443;28;20104;-63
2022/04/04 04:11:08;;;;;;;19.33;10.10;;;5.00;96.30;;;;;;5071593;27;20088;-66
2022/04/04 04:13:35;;;;;;;20.40;10.52;;;5.10;96.30;;;;;;5083201;28;20043;-65
2022/04/04 04:16:02;;;;;;;16.50;9.30;;;5.00;96.30;;;;;;5084699;28;20123;-64
2022/04/04 04:18:28;;;;;;;19.08;9.95;;;5.00;96.80;;;;;;5087829;27;20047;-65
2022/04/04 04:20:54;;;;;;;18.70;10.48;;;5.00;99.90;;;;;;5088901;27;20380;-65
2022/04/04 04:23:20;;;;;;;19.90;10.23;;;4.90;99.90;;;;;;5086651;28;20142;-65
2022/04/04 04:25:47;;;;;;;21.63;11.25;;;4.80;99.90;;;;;;5124524;27;20100;-64
2022/04/04 04:28:12;;;;;;;19.35;10.70;;;4.80;99.90;;;;;;5089348;28;20075;-65
2022/04/04 04:30:38;;;;;;;19.27;10.48;;;4.80;99.90;;;;;;5111681;27;20086;-63
2022/04/04 04:33:04;;;;;;;24.95;10.35;;;4.60;99.90;;;;;;5095187;28;20048;-64
2022/04/04 04:35:31;;;;;;;19.15;10.30;;;4.60;99.90;;;;;;5108168;27;20032;-66
2022/04/04 04:37:56;;;;;;;21.45;11.10;;;4.50;99.90;;;;;;5091112;27;20035;-66
2022/04/04 04:40:23;;;;;;;19.92;11.27;;;4.50;99.90;;;;;;5095264;28;20036;-66
2022/04/04 04:42:50;;;;;;;15.95;10.98;;;4.40;99.90;;;;;;5088203;28;20410;-65
2022/04/04 04:45:17;;;;;;;22.88;10.77;;;4.50;99.90;;;;;;5083995;28;20119;-67
2022/04/04 04:47:42;;;;;;;20.95;10.65;;;4.50;99.90;;;;;;5095499;27;20085;-68
2022/04/04 04:50:09;;;;;;;17.58;10.13;;;4.50;99.90;;;;;;5092487;28;20071;-67
2022/04/04 04:52:35;;;;;;;17.52;10.52;;;4.40;99.90;;;;;;5085469;28;20116;-66
2022/04/04 04:55:02;;;;;;;19.25;10.05;;;4.40;99.90;;;;;;5101478;28;20082;-65
2022/04/04 04:57:28;;;;;;;20.00;10.95;;;4.30;99.90;;;;;;5088576;28;20091;-69
2022/04/04 04:59:54;;;;;;;21.90;11.10;;;4.30;99.90;;;;;;5089692;28;20040;-67
2022/04/04 05:02:19;;;;;;;18.52;10.73;;;4.20;99.90;;;;;;5094938;28;20120;-65
2022/04/04 05:04:45;;;;;;;25.15;11.40;;;4.30;99.90;;;;;;5085288;28;20048;-66
2022/04/04 05:07:10;;;;;;;20.80;11.13;;;4.30;99.90;;;;;;5086424;28;20055;-67
2022/04/04 05:09:36;;;;;;;19.63;11.48;;;4.30;99.90;;;;;;5088537;28;20091;-65
2022/04/04 05:12:02;;;;;;;23.58;10.95;;;4.30;99.90;;;;;;5089866;28;20126;-67
2022/04/04 05:14:28;;;;;;;19.73;10.80;;;4.30;99.90;;;;;;5085386;28;20048;-66
2022/04/04 05:16:53;;;;;;;25.45;11.63;;;4.30;99.90;;;;;;5088738;28;20059;-66
2022/04/04 05:19:20;;;;;;;17.63;11.13;;;4.20;99.90;;;;;;5084108;28;20123;-65
2022/04/04 05:21:46;;;;;;;22.90;12.20;;;4.30;99.90;;;;;;5087043;28;20036;-67
2022/04/04 05:24:12;;;;;;;16.20;10.48;;;4.30;99.90;;;;;;5085946;28;20111;-66
2022/04/04 05:26:38;;;;;;;20.35;11.52;;;4.30;99.90;;;;;;5086459;28;20036;-65
2022/04/04 05:29:04;;;;;;;19.52;10.90;;;4.20;99.90;;;;;;5120545;28;20044;-67
2022/04/04 05:31:31;;;;;;;23.65;12.70;;;4.30;99.90;;;;;;5081371;28;20047;-64
2022/04/04 05:33:57;;;;;;;21.63;11.02;;;4.20;99.90;;;;;;5086360;28;20512;-65
2022/04/04 05:36:27;;;;;;;24.52;12.25;;;4.20;99.90;;;;;;5080661;28;20059;-65
2022/04/04 05:38:53;;;;;;;20.40;11.50;;;4.20;99.90;;;;;;5086102;28;20659;-67
2022/04/04 05:41:19;;;;;;;22.08;12.10;;;4.20;99.90;;;;;;5069447;28;20036;-67
2022/04/04 05:43:46;;;;;;;20.13;11.60;;;4.20;99.90;;;;;;5095439;28;20043;-63
2022/04/04 05:46:13;;;;;;;23.42;11.63;;;4.30;99.90;;;;;;5085777;28;20054;-66
2022/04/04 05:48:38;;;;;;;24.33;12.75;;;4.30;99.90;;;;;;5089610;28;20304;-64
2022/04/04 05:51:04;;;;;;;20.02;11.80;;;4.20;99.90;;;;;;5090561;28;20047;-63
2022/04/04 05:53:30;;;;;;;21.92;12.18;;;4.30;99.90;;;;;;5088424;28;20043;-64
2022/04/04 05:55:55;;;;;;;17.27;11.65;;;4.20;99.90;;;;;;5089270;28;20031;-66
2022/04/04 05:58:21;;;;;;;18.42;11.27;;;4.20;99.90;;;;;;5087148;28;20080;-66
2022/04/04 06:00:47;;;;;;;21.77;11.85;;;4.20;99.90;;;;;;5083163;28;20032;-65
2022/04/04 06:03:13;;;;;;;19.42;11.95;;;4.20;99.90;;;;;;5087810;28;20035;-65
2022/04/04 06:05:38;;;;;;;23.75;11.75;;;4.20;99.90;;;;;;5097320;28;20512;-67
2022/04/04 06:08:04;;;;;;;23.70;12.65;;;4.20;99.90;;;;;;5088973;27;20088;-64
2022/04/04 06:10:29;;;;;;;20.98;11.13;;;4.10;99.90;;;;;;5087719;28;20036;-65
2022/04/04 06:12:55;;;;;;;21.27;13.00;;;4.10;99.90;;;;;;5090302;28;20034;-65
2022/04/04 06:15:20;;;;;;;23.00;12.82;;;4.10;99.90;;;;;;5074423;28;20046;-64
2022/04/04 06:17:47;;;;;;;20.90;12.35;;;4.10;99.90;;;;;;5091301;28;20055;-67
2022/04/04 06:20:13;;;;;;;21.23;11.35;;;4.00;99.90;;;;;;5098454;28;20050;-64
2022/04/04 06:22:40;;;;;;;23.75;13.27;;;4.00;99.90;;;;;;5090201;28;20035;-65
2022/04/04 06:25:10;;;;;;;22.25;12.90;;;3.90;99.90;;;;;;5126171;27;20071;-64
2022/04/04 06:27:36;;;;;;;;;;;3.90;99.90;;;;;;5089031;27;20066;-64
2022/04/04 06:30:04;;;;;;;25.70;12.15;;;3.90;99.90;;;;;;5094021;27;19927;-66
2022/04/04 06:32:29;;;;;;;21.65;12.75;;;3.90;99.90;;;;;;5087466;28;20047;-63
2022/04/04 06:34:55;;;;;;;25.50;13.43;;;3.80;99.90;;;;;;5093099;27;20031;-65
2022/04/04 06:37:21;;;;;;;28.50;13.93;;;3.90;99.90;;;;;;5090082;28;20035;-65
2022/04/04 06:39:46;;;;;;;21.38;13.10;;;3.80;99.90;;;;;;5089642;28;20085;-64
2022/04/04 06:42:12;;;;;;;23.13;13.18;;;3.70;99.90;;;;;;5072268;28;20039;-65
2022/04/04 06:44:37;;;;;;;24.17;13.68;;;3.90;99.90;;;;;;5088554;28;20043;-64
2022/04/04 06:47:04;;;;;;;23.92;13.48;;;3.70;99.90;;;;;;5127100;27;20424;-65
2022/04/04 06:49:30;;;;;;;24.38;14.27;;;4.00;99.90;;;;;;5091380;28;20371;-66
2022/04/04 06:51:56;;;;;;;25.85;14.43;;;3.90;99.90;;;;;;5092582;28;20032;-65
2022/04/04 06:54:22;;;;;;;24.58;14.05;;;3.60;99.90;;;;;;5123996;27;20093;-64
2022/04/04 06:56:49;;;;;;;27.55;13.57;;;3.60;99.90;;;;;;5091258;28;20073;-65
2022/04/04 06:59:16;;;;;;;25.20;14.48;;;4.10;99.90;;;;;;5092764;28;20047;-64
2022/04/04 07:01:42;;;;;;;24.35;14.13;;;3.80;99.90;;;;;;5101117;28;20039;-65
2022/04/04 07:04:11;;;;;;;30.33;15.10;;;3.90;99.90;;;;;;5074292;27;20470;-65
2022/04/04 07:06:37;;;;;;;29.35;15.35;;;4.00;99.90;;;;;;5085454;28;20044;-67
2022/04/04 07:09:03;;;;;;;27.77;14.95;;;3.60;99.90;;;;;;5089001;28;20035;-68
2022/04/04 07:11:29;;;;;;;26.73;15.13;;;3.80;99.90;;;;;;5090599;28;20129;-67
2022/04/04 07:13:56;;;;;;;30.88;16.25;;;4.00;99.90;;;;;;5090571;28;20135;-66
2022/04/04 07:16:21;;;;;;;31.48;16.67;;;4.10;99.90;;;;;;5109308;28;20061;-66
2022/04/04 07:18:48;;;;;;;28.25;16.52;;;4.20;99.90;;;;;;5074506;28;20024;-65
2022/04/04 07:21:15;;;;;;;32.92;17.90;;;3.60;99.90;;;;;;5090088;27;20067;-64
2022/04/04 07:23:41;;;;;;;32.90;17.38;;;3.70;99.90;;;;;;5124149;27;20047;-65
2022/04/04 07:26:06;;;;;;;31.77;16.40;;;3.80;99.90;;;;;;5075850;27;20047;-64
2022/04/04 07:28:32;;;;;;;28.95;17.42;;;4.30;99.90;;;;;;5099266;28;20035;-64
2022/04/04 07:30:58;;;;;;;31.90;16.63;;;3.90;99.90;;;;;;5092418;28;20082;-63
2022/04/04 07:33:24;;;;;;;35.13;17.35;;;4.30;99.90;;;;;;5104985;27;20099;-64
2022/04/04 07:35:50;;;;;;;35.75;17.90;;;4.10;99.90;;;;;;5091914;28;20459;-66
2022/04/04 07:38:16;;;;;;;27.98;16.95;;;3.90;99.90;;;;;;5091136;28;20046;-64
2022/04/04 07:40:42;;;;;;;29.98;16.67;;;4.10;99.90;;;;;;5111398;27;20055;-63
2022/04/04 07:43:08;;;;;;;32.20;16.90;;;4.30;99.90;;;;;;5094382;28;20048;-67
2022/04/04 07:45:34;;;;;;;33.45;18.20;;;3.80;99.90;;;;;;5121079;27;20080;-65
2022/04/04 07:48:00;;;;;;;32.85;17.58;;;4.20;99.90;;;;;;5093309;28;20422;-66
2022/04/04 07:50:27;;;;;;;27.60;16.23;;;4.10;99.90;;;;;;5108171;27;20063;-66
2022/04/04 07:52:53;;;;;;;30.08;17.25;;;4.30;99.90;;;;;;5101499;27;20051;-63
2022/04/04 07:55:18;;;;;;;29.08;17.35;;;4.10;99.90;;;;;;5095082;28;20031;-66
2022/04/04 07:57:45;;;;;;;33.10;18.10;;;4.10;99.90;;;;;;5090799;27;20040;-65
2022/04/04 08:00:14;;;;;;;31.77;17.92;;;3.90;99.90;;;;;;5099740;27;20557;-67
2022/04/04 08:02:40;;;;;;;31.23;17.57;;;4.30;99.90;;;;;;5126434;27;20042;-65
2022/04/04 08:05:08;;;;;;;33.85;18.30;;;4.40;99.90;;;;;;5089993;28;20548;-66
2022/04/04 08:07:33;;;;;;;37.35;19.17;;;4.10;99.90;;;;;;5090302;28;20043;-69
2022/04/04 08:09:59;;;;;;;32.90;18.42;;;4.10;99.90;;;;;;5084610;28;20072;-68
2022/04/04 08:12:26;;;;;;;38.00;20.30;;;4.00;99.90;;;;;;5110344;28;20130;-69
2022/04/04 08:14:52;;;;;;;38.20;19.60;;;4.50;99.90;;;;;;5090410;28;20062;-67
2022/04/04 08:17:18;;;;;;;36.38;20.00;;;4.10;99.90;;;;;;5087339;28;20044;-67
2022/04/04 08:19:43;;;;;;;36.60;19.67;;;4.40;99.90;;;;;;5100781;28;20042;-68
2022/04/04 08:22:09;;;;;;;33.72;18.35;;;4.10;99.90;;;;;;5089759;28;20130;-69
2022/04/04 08:24:34;;;;;;;36.97;19.08;;;4.20;99.90;;;;;;5086480;28;20070;-68
2022/04/04 08:27:00;;;;;;;33.00;19.10;;;4.40;99.90;;;;;;5105819;27;20035;-68
2022/04/04 08:29:26;;;;;;;33.10;18.25;;;4.20;99.90;;;;;;5071060;28;20451;-66
2022/04/04 08:31:52;;;;;;;34.45;18.60;;;4.60;99.90;;;;;;5090153;28;20032;-67
2022/04/04 08:34:18;;;;;;;36.67;19.38;;;4.60;99.90;;;;;;5091119;27;20120;-68
2022/04/04 08:36:43;;;;;;;35.22;18.38;;;4.60;99.90;;;;;;5074389;28;20047;-67
2022/04/04 08:39:09;;;;;;;36.85;18.85;;;4.30;99.90;;;;;;5105447;28;20043;-68
2022/04/04 08:41:36;;;;;;;36.70;18.45;;;4.80;99.90;;;;;;5089132;28;20036;-68
2022/04/04 08:44:03;;;;;;;30.85;18.08;;;4.50;99.90;;;;;;5088676;28;20126;-67
2022/04/04 08:46:29;;;;;;;35.33;18.10;;;4.70;99.90;;;;;;5088525;28;20543;-67
2022/04/04 08:48:58;;;;;;;33.25;17.77;;;4.80;99.90;;;;;;5084970;28;20352;-67
2022/04/04 08:51:27;;;;;;;28.65;16.25;;;4.80;99.90;;;;;;5102587;28;20042;-69
2022/04/04 08:53:54;;;;;;;30.50;15.55;;;4.50;99.90;;;;;;5082670;28;20139;-68
2022/04/04 08:56:22;;;;;;;25.67;15.82;;;4.60;99.90;;;;;;5091858;27;20067;-67
2022/04/04 08:58:47;;;;;;;32.38;15.13;;;4.90;99.90;;;;;;5088336;28;20076;-68
2022/04/04 09:01:13;;;;;;;25.75;14.27;;;4.50;99.90;;;;;;5068455;28;20047;-67
2022/04/04 09:03:38;;;;;;;24.08;14.45;;;5.00;99.90;;;;;;5103831;28;20039;-67
2022/04/04 09:06:05;;;;;;;25.35;14.15;;;4.80;99.90;;;;;;5092735;28;20485;-67
2022/04/04 09:08:43;;;;;;;23.63;13.95;;;5.00;99.90;;;;;;5104927;28;20070;-67
2022/04/04 09:11:09;;;;;;;18.85;12.30;;;5.00;99.90;;;;;;5083409;28;20051;-68
2022/04/04 09:13:35;;;;;;;18.58;10.95;;;5.00;99.90;;;;;;5072844;28;20027;-67
2022/04/04 09:16:04;;;;;;;18.65;10.55;;;4.70;99.90;;;;;;5076865;28;20040;-66
2022/04/04 09:18:35;;;;;;;19.00;10.95;;;4.70;99.90;;;;;;5097955;28;20108;-68
2022/04/04 09:21:03;;;;;;;20.48;9.48;;;5.00;99.90;;;;;;5084045;28;20446;-68
2022/04/04 09:23:36;;;;;;;15.60;9.20;;;5.00;99.90;;;;;;5095183;28;20583;-67
2022/04/04 09:26:02;;;;;;;14.90;8.27;;;4.80;99.90;;;;;;5087488;28;20039;-67
2022/04/04 09:28:28;;;;;;;13.50;6.85;;;5.20;99.90;;;;;;5113957;28;20475;-67
2022/04/04 09:31:06;;;;;;;12.70;7.07;;;4.90;99.90;;;;;;5092633;27;20074;-68
2022/04/04 09:33:40;;;;;;;10.55;5.93;;;4.90;99.90;;;;;;5090454;28;20102;-68
2022/04/04 09:36:07;;;;;;;9.68;5.63;;;5.10;99.90;;;;;;5112268;27;20154;-66
2022/04/04 09:38:34;;;;;;;8.85;5.30;;;5.10;99.90;;;;;;5087024;27;20036;-67
2022/04/04 09:41:05;;;;;;;12.57;5.53;;;5.10;99.90;;;;;;5089637;28;20028;-66
2022/04/04 09:43:51;;;;;;;9.77;5.90;;;5.00;99.90;;;;;;5075555;28;20420;-66
2022/04/04 09:46:16;;;;;;;13.23;5.72;;;5.10;99.90;;;;;;5121334;27;20123;-68
2022/04/04 09:49:09;;;;;;;11.15;5.30;;;5.10;99.90;;;;;;5108000;28;20126;-68
2022/04/04 09:51:45;;;;;;;9.75;4.88;;;5.10;99.90;;;;;;5091256;28;20122;-66
2022/04/04 09:54:33;;;;;;;8.75;4.70;;;5.00;99.90;;;;;;5078723;28;20062;-67
2022/04/04 09:57:13;;;;;;;7.22;4.10;;;5.20;99.90;;;;;;5092858;28;20036;-66
2022/04/04 09:59:41;;;;;;;8.10;4.30;;;5.00;99.90;;;;;;5096102;27;20043;-69
2022/04/04 10:02:07;;;;;;;7.40;4.38;;;5.30;99.90;;;;;;5103992;28;20044;-68
2022/04/04 10:04:33;;;;;;;7.30;4.93;;;5.10;99.90;;;;;;5093181;27;20074;-67
2022/04/04 10:07:06;;;;;;;10.55;4.13;;;5.40;99.90;;;;;;5094017;28;20443;-67
2022/04/04 10:09:33;;;;;;;9.82;4.28;;;5.40;99.90;;;;;;5083608;28;20077;-67
2022/04/04 10:11:58;;;;;;;8.88;4.18;;;5.30;99.90;;;;;;5074313;28;20058;-67
2022/04/04 10:14:25;;;;;;;7.75;4.78;;;5.20;99.90;;;;;;5125632;27;20032;-67
2022/04/04 10:16:52;;;;;;;6.97;4.60;;;5.30;99.90;;;;;;5090470;28;20387;-68
2022/04/04 10:19:17;;;;;;;6.28;4.28;;;5.20;99.90;;;;;;5119283;27;20122;-68
2022/04/04 10:21:43;;;;;;;8.45;5.30;;;5.30;99.90;;;;;;5090204;28;20149;-67
2022/04/04 10:24:11;;;;;;;9.27;5.32;;;5.50;99.90;;;;;;5089064;28;20107;-66
2022/04/04 10:26:37;;;;;;;11.90;5.45;;;5.30;99.90;;;;;;5091020;28;20050;-66
2022/04/04 10:29:15;;;;;;;9.00;5.30;;;5.40;99.90;;;;;;5070237;28;20126;-71
2022/04/04 10:31:55;;;;;;;11.52;5.88;;;5.20;99.90;;;;;;5075746;28;20088;-69
2022/04/04 10:34:25;;;;;;;10.38;6.07;;;5.30;99.90;;;;;;5091177;28;20047;-67
2022/04/04 10:37:02;;;;;;;7.07;5.68;;;5.50;99.90;;;;;;5092560;28;20043;-68
2022/04/04 10:39:35;;;;;;;9.27;5.78;;;5.50;99.90;;;;;;5088946;28;20096;-67
2022/04/04 10:42:03;;;;;;;8.15;5.18;;;5.50;99.90;;;;;;5069355;28;20367;-68
2022/04/04 10:44:49;;;;;;;8.65;5.65;;;5.60;99.90;;;;;;5076277;28;20031;-66
2022/04/04 10:47:22;;;;;;;10.30;5.28;;;5.60;99.90;;;;;;5106096;27;20382;-67
2022/04/04 10:49:48;;;;;;;9.40;6.38;;;5.50;99.90;;;;;;5121086;27;20074;-69
2022/04/04 10:52:19;;;;;;;9.90;6.10;;;5.50;99.90;;;;;;5090589;28;20821;-69
2022/04/04 10:54:44;;;;;;;;;;;5.60;99.90;;;;;;5073416;28;20042;-66
2022/04/04 10:57:18;;;;;;;6.93;5.05;;;5.70;99.90;;;;;;5091547;27;19923;-65
2022/04/04 10:59:48;;;;;;;9.18;5.43;;;5.70;99.90;;;;;;5118632;27;20123;-67
2022/04/04 11:02:18;;;;;;;8.25;5.45;;;5.70;99.90;;;;;;5102711;27;20043;-67
2022/04/04 11:07:41;;;;;;;8.30;5.63;;;5.80;99.90;;;;;;5087331;27;20166;-67
2022/04/04 11:10:10;;;;;;;8.23;5.38;;;5.80;99.90;;;;;;5088831;28;20036;-67
2022/04/04 11:13:03;;;;;;;9.23;4.97;;;6.00;99.90;;;;;;5088336;28;20070;-66
2022/04/04 11:15:44;;;;;;;10.85;5.78;;;5.90;99.90;;;;;;5082814;27;20431;-70
2022/04/04 11:18:12;;;;;;;6.47;4.57;;;6.00;99.90;;;;;;5123273;27;20398;-66
2022/04/04 11:20:53;;;;;;;8.43;4.93;;;6.00;99.90;;;;;;5095703;28;20047;-67
2022/04/04 11:23:20;;;;;;;10.38;5.78;;;6.00;99.90;;;;;;5072102;28;20092;-66
2022/04/04 11:25:54;;;;;;;8.10;4.65;;;6.00;99.90;;;;;;5090252;28;20101;-68
2022/04/04 11:28:31;;;;;;;8.23;4.65;;;6.00;99.90;;;;;;5088211;28;20048;-67
2022/04/04 11:31:10;;;;;;;8.18;4.68;;;6.20;99.90;;;;;;5090488;28;20055;-67
2022/04/04 11:33:51;;;;;;;7.75;4.60;;;6.20;99.90;;;;;;5089738;28;20047;-67
2022/04/04 11:36:24;;;;;;;8.02;4.20;;;6.10;99.90;;;;;;5090659;28;20024;-67
2022/04/04 11:38:51;;;;;;;10.25;4.88;;;6.10;99.90;;;;;;5082210;27;20376;-67
2022/04/04 11:41:19;;;;;;;6.60;4.05;;;6.30;99.90;;;;;;5078143;28;20150;-65
2022/04/04 11:43:50;;;;;;;5.70;4.05;;;6.20;99.90;;;;;;5091703;28;20096;-68
2022/04/04 11:46:19;;;;;;;8.23;4.03;;;6.20;99.90;;;;;;5089148;28;20043;-68
2022/04/04 11:48:54;;;;;;;6.50;3.45;;;6.40;99.90;;;;;;5070092;28;20039;-69
2022/04/04 11:51:26;;;;;;;3.97;3.30;;;6.50;99.90;;;;;;5118921;27;20037;-65
2022/04/04 11:54:09;;;;;;;5.65;3.13;;;6.50;99.90;;;;;;5109255;28;20367;-68
2022/04/04 11:56:35;;;;;;;5.05;2.97;;;6.60;99.90;;;;;;5095994;27;20046;-67
2022/04/04 11:59:04;;;;;;;5.47;3.25;;;6.60;99.90;;;;;;5075366;28;20107;-67
2022/04/04 12:01:36;;;;;;;7.10;3.58;;;6.60;99.90;;;;;;5092681;28;21093;-66
2022/04/04 12:04:03;;;;;;;4.22;3.20;;;6.80;99.90;;;;;;5121471;27;20098;-67
2022/04/04 12:06:30;;;;;;;6.07;3.10;;;6.60;99.90;;;;;;5075599;28;20058;-69
2022/04/04 12:09:00;;;;;;;3.97;2.72;;;6.70;99.90;;;;;;5082845;28;20039;-66
2022/04/04 12:11:28;;;;;;;4.70;2.90;;;6.80;99.90;;;;;;5088755;28;20043;-67
2022/04/04 12:13:57;;;;;;;4.70;2.38;;;6.60;99.90;;;;;;5106599;27;20035;-69
2022/04/04 12:16:23;;;;;;;6.07;2.45;;;6.60;99.90;;;;;;5079715;27;20728;-68
2022/04/04 12:19:00;;;;;;;2.35;2.00;;;6.70;99.90;;;;;;5090583;28;20040;-68
2022/04/04 12:21:26;;;;;;;2.78;2.20;;;6.70;99.90;;;;;;5094895;27;20035;-66
2022/04/04 12:26:37;;;;;;;3.38;2.20;;;6.70;99.90;;;;;;5091612;27;20055;-67
2022/04/04 12:29:10;;;;;;;3.30;2.20;;;6.60;99.90;;;;;;5105581;27;20046;-67
2022/04/04 12:31:35;;;;;;;5.53;2.40;;;6.80;99.90;;;;;;5095336;28;20622;-68
2022/04/04 12:34:06;;;;;;;4.40;2.40;;;6.80;99.90;;;;;;5090887;28;20040;-68
2022/04/04 12:36:40;;;;;;;3.72;2.47;;;6.90;99.90;;;;;;5062836;27;20104;-68
2022/04/04 12:39:19;;;;;;;3.90;1.85;;;6.90;99.90;;;;;;5074806;27;20043;-67
2022/04/04 12:41:56;;;;;;;4.35;2.08;;;6.80;99.90;;;;;;5086125;27;20055;-68
2022/04/04 12:44:27;;;;;;;5.07;2.20;;;6.80;99.90;;;;;;5074190;28;20039;-66
2022/04/04 12:47:07;;;;;;;3.17;2.10;;;7.00;99.90;;;;;;5092063;28;20058;-67
2022/04/04 12:49:32;;;;;;;3.15;2.33;;;7.00;99.90;;;;;;5082236;28;20762;-68
2022/04/04 12:52:05;;;;;;;4.10;1.90;;;7.00;99.90;;;;;;5083544;28;20039;-68
2022/04/04 12:54:33;;;;;;;2.63;2.00;;;7.10;99.90;;;;;;5072921;27;20054;-66
2022/04/04 12:57:03;;;;;;;3.17;1.77;;;7.10;99.90;;;;;;5088482;28;20138;-67